Time;durP1;ratioP1;P1;durP2;ratioP2;P2;SDS_P1;SDS_P2;PMS_P1;PMS_P2;Temp;Humidity;BMP_temperature;BMP_pressure;BME280_temperature;BME280_humidity;BME280_pressure;Samples;Min_cycle;Max_cycle;Signal;HPM_P1;HPM_P2
2023/12/25 00:00:36;;;;;;;8.80;3.90;;;;;;;0.03;77.53;98385.30;82177;1298;3013197;-70
2023/12/25 00:03:03;;;;;;;12.10;4.20;;;;;;;-0.18;77.42;98389.82;82102;1294;3011338;-63
2023/12/25 00:05:31;;;;;;;10.80;4.80;;;;;;;-0.27;77.93;98389.23;80855;1293;3025607;-71
2023/12/25 00:07:58;;;;;;;10.30;4.10;;;;;;;-0.54;78.65;98388.58;82136;1294;3018576;-68
2023/12/25 00:10:25;;;;;;;7.70;3.80;;;;;;;-0.50;78.85;98385.02;82128;1292;3011420;-72
2023/12/25 00:12:53;;;;;;;7.20;4.20;;;;;;;-0.61;78.84;98387.44;80843;1294;3026078;-68
2023/12/25 00:15:19;;;;;;;9.60;4.40;;;;;;;-0.63;78.86;98386.13;82047;1293;3013229;-68
2023/12/25 00:17:46;;;;;;;7.70;4.20;;;;;;;-0.96;80.43;98386.98;82059;1297;3011157;-69
2023/12/25 00:20:14;;;;;;;8.00;4.10;;;;;;;-0.94;81.28;98386.75;80805;1293;3026203;-69
2023/12/25 00:22:40;;;;;;;8.00;4.20;;;;;;;-0.98;80.66;98397.20;82073;1293;3018663;-69
2023/12/25 00:25:07;;;;;;;8.40;4.40;;;;;;;-1.07;81.39;98396.27;82014;1295;3011373;-73
2023/12/25 00:27:35;;;;;;;8.00;3.60;;;;;;;-1.15;82.21;98402.54;80798;1292;3026024;-71
2023/12/25 00:30:02;;;;;;;7.80;4.50;;;;;;;-1.23;82.19;98400.18;82065;1294;3017947;-69
2023/12/25 00:32:29;;;;;;;6.90;3.10;;;;;;;-1.27;83.05;98394.82;82007;1294;3011593;-72
2023/12/25 00:34:57;;;;;;;8.20;3.70;;;;;;;-0.46;81.68;98400.54;80775;1293;3025222;-72
2023/12/25 00:37:23;;;;;;;12.10;4.70;;;;;;;0.40;79.09;98400.16;82053;1294;3018617;-71
2023/12/25 00:39:50;;;;;;;8.50;4.20;;;;;;;0.28;77.67;98394.59;82055;1293;3011313;-68
2023/12/25 00:42:19;;;;;;;9.50;4.40;;;;;;;0.21;77.15;98392.26;80781;1293;3026405;-67
2023/12/25 00:44:46;;;;;;;8.00;3.20;;;;;;;0.01;77.59;98392.95;82057;1295;3013345;-72
2023/12/25 00:47:12;;;;;;;6.30;3.40;;;;;;;-0.38;78.09;98393.04;82136;1295;3011629;-72
2023/12/25 00:49:40;;;;;;;7.50;3.30;;;;;;;-0.35;78.22;98391.07;80861;1293;3051700;-71
2023/12/25 00:52:07;;;;;;;6.90;3.10;;;;;;;-0.35;78.01;98388.50;82152;1292;3012538;-72
2023/12/25 00:54:35;;;;;;;5.90;2.90;;;;;;;-0.51;78.41;98392.60;82128;1293;3011145;-73
2023/12/25 00:57:03;;;;;;;7.20;3.40;;;;;;;-0.63;78.69;98408.48;80811;1294;3048757;-73
2023/12/25 00:59:30;;;;;;;3.90;2.60;;;;;;;-0.53;78.81;98402.83;82157;1293;3011285;-74
2023/12/25 01:01:57;;;;;;;7.00;3.50;;;;;;;-0.64;78.55;98400.98;82066;1298;3011266;-72
2023/12/25 01:04:25;;;;;;;7.20;3.80;;;;;;;-0.69;79.02;98393.04;80901;1294;3050916;-73
2023/12/25 01:06:51;;;;;;;6.20;3.60;;;;;;;-0.67;79.24;98393.83;82181;1293;3018426;-74
2023/12/25 01:09:18;;;;;;;6.70;4.00;;;;;;;-0.67;79.18;98387.81;82123;1292;3011186;-73
2023/12/25 01:11:47;;;;;;;10.30;4.10;;;;;;;-0.77;79.21;98382.11;80824;1292;3049829;-73
2023/12/25 01:14:15;;;;;;;8.40;5.30;;;;;;;-0.90;79.81;98385.27;82153;1294;3012547;-72
2023/12/25 01:16:41;;;;;;;6.40;4.40;;;;;;;-0.94;80.24;98379.55;82077;1294;3011657;-74
2023/12/25 01:19:11;;;;;;;11.20;5.00;;;;;;;-0.87;80.18;98384.48;80870;1294;3051546;-73
2023/12/25 01:21:38;;;;;;;11.60;5.50;;;;;;;-0.81;79.90;98386.89;82056;1294;3012829;-73
2023/12/25 01:24:05;;;;;;;6.00;3.60;;;;;;;-0.92;80.70;98390.14;82183;1293;3011577;-73
2023/12/25 01:26:33;;;;;;;10.30;4.50;;;;;;;0.14;79.64;98391.25;80892;1292;3048767;-73
2023/12/25 01:28:59;;;;;;;10.00;4.80;;;;;;;0.84;75.77;98394.77;82174;1294;3018428;-72
2023/12/25 01:31:26;;;;;;;10.50;4.60;;;;;;;0.47;75.66;98390.45;82112;1294;3011466;-72
2023/12/25 01:33:54;;;;;;;8.10;3.80;;;;;;;0.24;76.45;98402.65;80814;1292;3024653;-71
2023/12/25 01:36:20;;;;;;;7.10;3.90;;;;;;;-0.08;77.04;98400.48;82119;1294;3012681;-73
2023/12/25 01:38:47;;;;;;;6.40;3.30;;;;;;;-0.36;78.10;98392.63;82123;1293;3011368;-71
2023/12/25 01:41:15;;;;;;;6.10;3.20;;;;;;;-0.51;78.48;98381.97;80784;1294;3026683;-72
2023/12/25 01:43:42;;;;;;;5.40;3.30;;;;;;;-0.68;78.82;98372.37;82094;1293;3013075;-71
2023/12/25 01:46:11;;;;;;;5.40;2.80;;;;;;;-0.78;79.56;98365.98;82115;1297;3011285;-72
2023/12/25 01:48:41;;;;;;;7.00;3.40;;;;;;;-0.78;79.17;98358.58;80851;1292;3050238;-69
2023/12/25 01:51:07;;;;;;;4.80;3.20;;;;;;;-0.78;79.57;98361.33;82104;1294;3011654;-74
2023/12/25 01:53:34;;;;;;;6.80;3.40;;;;;;;-0.97;80.25;98366.04;82162;1293;3011013;-73
2023/12/25 01:56:02;;;;;;;7.30;3.50;;;;;;;-1.12;81.10;98371.16;80819;1292;3050174;-72
2023/12/25 01:58:29;;;;;;;6.40;4.20;;;;;;;-1.10;81.01;98378.67;82099;1298;3018405;-72
2023/12/25 02:00:56;;;;;;;6.40;3.60;;;;;;;-1.32;82.54;98372.28;82073;1293;3011208;-72
2023/12/25 02:03:24;;;;;;;6.90;3.60;;;;;;;-1.21;82.33;98383.64;80833;1295;3026596;-71
2023/12/25 02:05:51;;;;;;;5.70;3.00;;;;;;;-1.13;81.83;98393.88;82093;1293;3013453;-71
2023/12/25 02:08:18;;;;;;;4.30;2.30;;;;;;;-0.33;80.64;98402.34;82053;1293;3011154;-70
2023/12/25 02:10:46;;;;;;;6.20;3.40;;;;;;;0.34;77.87;98401.75;80803;1293;3049023;-74
2023/12/25 02:13:13;;;;;;;5.70;3.50;;;;;;;0.09;77.46;98398.00;82160;1292;3013265;-71
2023/12/25 02:15:40;;;;;;;6.70;3.60;;;;;;;-0.04;77.55;98407.25;82053;1295;3011362;-73
2023/12/25 02:18:08;;;;;;;6.80;3.40;;;;;;;-0.18;77.88;98402.54;80725;1295;3025952;-71
2023/12/25 02:20:34;;;;;;;9.80;3.40;;;;;;;-0.33;77.83;98396.50;82157;1293;3018855;-70
2023/12/25 02:23:03;;;;;;;7.80;3.70;;;;;;;-0.91;79.35;98392.85;82051;1292;3011342;-66
2023/12/25 02:25:32;;;;;;;12.00;4.50;;;;;;;-0.88;80.16;98388.48;80766;1296;3048657;-70
2023/12/25 02:27:59;;;;;;;11.10;5.40;;;;;;;-0.86;79.71;98393.90;82095;1298;3013419;-68
2023/12/25 02:30:26;;;;;;;9.20;4.10;;;;;;;-1.07;80.41;98385.62;82062;1293;3011233;-69
2023/12/25 02:32:54;;;;;;;12.60;5.20;;;;;;;-1.07;80.43;98389.41;80858;1294;3050962;-66
2023/12/25 02:35:21;;;;;;;8.40;4.50;;;;;;;-1.18;80.67;98387.83;82131;1293;3013382;-70
2023/12/25 02:37:48;;;;;;;9.80;5.20;;;;;;;-1.18;80.26;98380.45;81955;1293;3011222;-67
2023/12/25 02:40:16;;;;;;;7.50;4.30;;;;;;;-1.31;80.70;98382.02;80842;1297;3026554;-68
2023/12/25 02:42:43;;;;;;;8.70;5.00;;;;;;;-1.41;81.35;98380.63;82193;1294;3012661;-70
2023/12/25 02:45:09;;;;;;;10.80;5.20;;;;;;;-1.46;81.82;98373.91;82067;1295;3011399;-68
2023/12/25 02:47:38;;;;;;;8.90;5.00;;;;;;;-1.48;81.79;98376.52;80866;1294;3049428;-69
2023/12/25 02:50:05;;;;;;;10.10;4.20;;;;;;;-1.34;81.01;98372.86;82165;1293;3013222;-68
2023/12/25 02:52:32;;;;;;;8.00;4.60;;;;;;;-1.01;80.82;98363.62;82127;1292;3011698;-71
2023/12/25 02:54:59;;;;;;;7.30;4.30;;;;;;;-0.34;78.96;98363.67;80841;1294;3026853;-68
2023/12/25 02:57:28;;;;;;;10.20;4.90;;;;;;;0.09;77.56;98366.84;82129;1292;3011594;-69
2023/12/25 02:59:55;;;;;;;9.60;5.80;;;;;;;-0.09;76.81;98370.23;82194;1292;3011504;-68
2023/12/25 03:02:23;;;;;;;12.70;5.60;;;;;;;-0.27;76.68;98367.92;80906;1293;3053018;-66
2023/12/25 03:04:49;;;;;;;22.10;8.90;;;;;;;-0.49;77.15;98366.40;82048;1294;3017917;-67
2023/12/25 03:07:16;;;;;;;31.40;13.40;;;;;;;-0.71;77.90;98368.66;82146;1292;3011728;-71
2023/12/25 03:09:44;;;;;;;14.50;7.00;;;;;;;-0.69;78.09;98372.39;80855;1292;3026042;-71
2023/12/25 03:12:10;;;;;;;10.60;5.20;;;;;;;-0.76;78.07;98368.48;82147;1294;3013177;-69
2023/12/25 03:14:37;;;;;;;14.60;5.40;;;;;;;-0.86;78.06;98362.27;82063;1294;3011267;-68
2023/12/25 03:17:05;;;;;;;10.00;5.40;;;;;;;-1.15;79.38;98365.41;80877;1293;3026636;-66
2023/12/25 03:19:32;;;;;;;9.20;4.40;;;;;;;-1.15;79.83;98363.02;82177;1292;3012275;-67
2023/12/25 03:21:58;;;;;;;8.60;5.70;;;;;;;-1.22;79.86;98356.52;82152;1292;3011191;-70
2023/12/25 03:24:26;;;;;;;8.90;5.20;;;;;;;-1.31;80.17;98357.14;80908;1292;3025627;-69
2023/12/25 03:26:53;;;;;;;7.70;4.80;;;;;;;-1.37;80.24;98362.48;82103;1292;3012729;-70
2023/12/25 03:29:19;;;;;;;10.30;5.80;;;;;;;-1.34;80.31;98359.95;82135;1294;3011326;-70
2023/12/25 03:31:47;;;;;;;10.30;5.10;;;;;;;-1.42;80.54;98351.08;80924;1292;3027331;-70
2023/12/25 03:34:18;;;;;;;10.00;5.70;;;;;;;-1.57;81.49;98343.81;82114;1292;3018068;-71
2023/12/25 03:36:46;;;;;;;12.10;6.30;;;;;;;-1.48;81.00;98341.29;80870;1292;3054214;-69
2023/12/25 03:39:13;;;;;;;10.00;5.70;;;;;;;-1.52;80.94;98340.58;82168;1294;3011173;-70
2023/12/25 03:41:39;;;;;;;9.60;5.30;;;;;;;-1.51;81.29;98335.91;82151;1294;3011283;-69
2023/12/25 03:44:07;;;;;;;12.20;5.70;;;;;;;-1.53;80.90;98335.62;80854;1292;3024629;-71
2023/12/25 03:46:35;;;;;;;12.60;5.90;;;;;;;-1.52;80.99;98332.52;82139;1293;3012443;-69
2023/12/25 03:49:01;;;;;;;9.80;4.70;;;;;;;-1.51;81.26;98336.58;82156;1292;3011352;-67
2023/12/25 03:51:34;;;;;;;13.90;7.20;;;;;;;-0.74;80.44;98337.11;80883;1292;3027794;-69
2023/12/25 03:54:00;;;;;;;14.50;8.50;;;;;;;-0.43;77.59;98334.38;82124;1294;3011308;-68
2023/12/25 03:56:28;;;;;;;9.40;5.30;;;;;;;-0.42;77.39;98334.50;80871;1292;3053330;-66
2023/12/25 03:58:55;;;;;;;8.30;5.00;;;;;;;-0.44;77.59;98338.23;82073;1293;3018243;-68
2023/12/25 04:01:22;;;;;;;7.80;4.90;;;;;;;-0.68;78.39;98342.42;82161;1292;3011337;-68
2023/12/25 04:03:50;;;;;;;8.80;5.30;;;;;;;-0.66;78.32;98339.27;80803;1292;3026721;-69
2023/12/25 04:06:26;;;;;;;8.20;5.20;;;;;;;-0.97;79.09;98346.27;82061;1293;3013228;-71
2023/12/25 04:08:54;;;;;;;10.70;4.90;;;;;;;-1.07;79.27;98340.94;80874;1293;3049812;-67
2023/12/25 04:11:21;;;;;;;6.40;4.60;;;;;;;-1.23;79.59;98337.30;82113;1294;3010935;-69
2023/12/25 04:13:48;;;;;;;11.20;4.70;;;;;;;-1.54;80.66;98339.77;82021;1295;3011277;-69
2023/12/25 04:16:23;;;;;;;13.70;5.40;;;;;;;-1.60;80.65;98350.59;80913;1292;3050057;-69
2023/12/25 04:18:53;;;;;;;8.40;4.60;;;;;;;-1.76;81.78;98352.23;81524;1292;3011544;-71
2023/12/25 04:21:23;;;;;;;8.80;4.90;;;;;;;-1.82;81.66;98351.38;82097;1293;3012342;-73
2023/12/25 04:23:52;;;;;;;10.30;5.50;;;;;;;-1.94;82.05;98352.92;80890;1293;3052970;-67
2023/12/25 04:26:19;;;;;;;10.80;5.50;;;;;;;-1.99;82.87;98348.27;82055;1294;3012651;-66
2023/12/25 04:28:46;;;;;;;9.90;5.80;;;;;;;-1.94;82.33;98343.81;82170;1293;3011446;-71
2023/12/25 04:31:14;;;;;;;10.30;5.70;;;;;;;-2.08;82.70;98347.98;80876;1292;3067672;-69
2023/12/25 04:33:41;;;;;;;12.80;6.00;;;;;;;-2.22;83.17;98339.10;82197;1292;3018645;-66
2023/12/25 04:36:07;;;;;;;10.50;5.80;;;;;;;-2.16;83.19;98338.42;82113;1292;3011289;-71
2023/12/25 04:38:36;;;;;;;11.40;6.70;;;;;;;-2.22;83.04;98337.55;80810;1294;3026601;-67
2023/12/25 04:41:03;;;;;;;14.10;6.40;;;;;;;-2.29;83.39;98330.71;82160;1293;3011489;-69
2023/12/25 04:43:30;;;;;;;11.10;6.40;;;;;;;-2.30;83.44;98320.98;82038;1295;3011510;-69
2023/12/25 04:45:58;;;;;;;14.70;6.00;;;;;;;-2.28;83.63;98316.96;80802;1293;3067681;-69
2023/12/25 04:48:25;;;;;;;16.50;7.80;;;;;;;-1.90;82.77;98317.27;82194;1293;3014094;-73
2023/12/25 04:50:52;;;;;;;29.20;10.60;;;;;;;-1.18;80.14;98313.77;82138;1292;3011315;-71
2023/12/25 04:53:20;;;;;;;28.70;10.80;;;;;;;-1.02;78.30;98306.91;80805;1293;3052007;-70
2023/12/25 04:55:46;;;;;;;18.70;9.20;;;;;;;-1.22;78.27;98296.36;82172;1292;3012690;-70
2023/12/25 04:58:13;;;;;;;24.10;9.30;;;;;;;-1.44;78.84;98292.25;82173;1293;3011449;-71
2023/12/25 05:00:41;;;;;;;14.60;7.40;;;;;;;-1.48;79.19;98283.27;80859;1292;3026124;-74
2023/12/25 05:03:09;;;;;;;16.00;9.10;;;;;;;-1.58;79.08;98278.91;82122;1292;3013323;-68
2023/12/25 05:05:36;;;;;;;25.10;8.70;;;;;;;-1.74;79.80;98266.70;82107;1292;3011136;-76
2023/12/25 05:08:04;;;;;;;17.70;9.30;;;;;;;-1.92;80.24;98257.96;80816;1293;3052118;-71
2023/12/25 05:10:31;;;;;;;19.40;9.80;;;;;;;-1.95;80.70;98249.27;82124;1294;3013392;-72
2023/12/25 05:12:57;;;;;;;18.80;9.70;;;;;;;-2.06;80.97;98245.83;82107;1294;3011545;-70
2023/12/25 05:15:25;;;;;;;15.50;8.40;;;;;;;-2.11;81.40;98244.43;80902;1292;3026387;-74
2023/12/25 05:17:52;;;;;;;20.30;9.10;;;;;;;-2.13;81.76;98241.73;82165;1292;3018258;-67
2023/12/25 05:20:19;;;;;;;14.80;8.00;;;;;;;-2.37;82.57;98240.02;82031;1293;3011421;-69
2023/12/25 05:22:47;;;;;;;18.30;8.70;;;;;;;-2.35;82.54;98240.80;80790;1294;3026052;-68
2023/12/25 05:25:13;;;;;;;13.00;7.60;;;;;;;-2.46;82.66;98243.36;82066;1293;3018111;-65
2023/12/25 05:27:40;;;;;;;12.50;6.70;;;;;;;-2.49;82.38;98250.13;82063;1293;3011311;-67
2023/12/25 05:30:10;;;;;;;16.80;7.20;;;;;;;-2.61;82.73;98257.64;80758;1298;3027090;-67
2023/12/25 05:32:37;;;;;;;12.80;7.20;;;;;;;-2.77;83.29;98259.95;82103;1293;3011403;-66
2023/12/25 05:35:06;;;;;;;18.20;8.60;;;;;;;-2.82;83.51;98266.56;81566;1293;3011576;-66
2023/12/25 05:37:33;;;;;;;21.40;9.40;;;;;;;-2.94;84.29;98268.58;82075;1293;3013250;-67
2023/12/25 05:40:00;;;;;;;17.30;8.20;;;;;;;-2.88;84.43;98266.39;82032;1294;3011264;-65
2023/12/25 05:42:28;;;;;;;19.70;8.40;;;;;;;-2.90;84.16;98259.58;80793;1293;3026234;-69
2023/12/25 05:44:54;;;;;;;13.30;7.20;;;;;;;-2.93;84.25;98261.88;82095;1293;3012807;-66
2023/12/25 05:47:21;;;;;;;13.60;7.70;;;;;;;-2.90;84.01;98261.98;82070;1294;3011293;-70
2023/12/25 05:49:49;;;;;;;10.60;4.70;;;;;;;-3.05;84.58;98265.77;80812;1293;3027251;-68
2023/12/25 05:52:16;;;;;;;10.60;5.80;;;;;;;-2.55;83.60;98269.64;82082;1293;3012673;-76
2023/12/25 05:54:43;;;;;;;12.70;5.70;;;;;;;-2.13;81.47;98263.37;82014;1293;3011471;-72
2023/12/25 05:57:11;;;;;;;12.60;5.60;;;;;;;-2.01;80.20;98268.02;80767;1297;3026455;-71
2023/12/25 05:59:38;;;;;;;10.50;5.60;;;;;;;-2.05;80.20;98262.95;82140;1293;3013739;-72
2023/12/25 06:02:05;;;;;;;10.90;6.00;;;;;;;-2.21;80.38;98259.80;82146;1293;3011608;-71
2023/12/25 06:04:33;;;;;;;13.80;6.20;;;;;;;-2.25;81.08;98253.22;80836;1293;3027011;-71
2023/12/25 06:07:00;;;;;;;14.30;6.80;;;;;;;-2.30;80.98;98254.58;82068;1293;3013060;-71
2023/12/25 06:09:27;;;;;;;12.80;6.20;;;;;;;-2.62;82.21;98262.47;82105;1295;3011286;-72
2023/12/25 06:11:55;;;;;;;11.00;6.40;;;;;;;-2.54;82.16;98261.23;80878;1295;3053089;-71
2023/12/25 06:14:22;;;;;;;11.90;5.90;;;;;;;-2.61;82.24;98262.27;82147;1295;3013051;-72
2023/12/25 06:16:48;;;;;;;11.40;6.00;;;;;;;-2.57;82.24;98269.19;82168;1293;3011265;-72
2023/12/25 06:19:16;;;;;;;11.30;5.90;;;;;;;-2.64;82.50;98266.98;80883;1294;3057104;-72
2023/12/25 06:21:43;;;;;;;12.30;5.70;;;;;;;-2.74;82.82;98262.77;82146;1294;3019002;-69
2023/12/25 06:24:09;;;;;;;10.60;6.00;;;;;;;-2.75;82.71;98260.40;82154;1293;3011624;-72
2023/12/25 06:26:37;;;;;;;14.60;6.70;;;;;;;-2.57;82.52;98257.88;80896;1293;3027162;-72
2023/12/25 06:29:04;;;;;;;13.20;7.20;;;;;;;-2.52;82.33;98254.50;82171;1294;3012983;-73
2023/12/25 06:31:31;;;;;;;10.90;6.80;;;;;;;-2.56;82.92;98249.45;82158;1294;3011298;-73
2023/12/25 06:33:59;;;;;;;14.40;7.30;;;;;;;-2.48;82.52;98249.40;80804;1294;3056557;-74
2023/12/25 06:36:25;;;;;;;15.00;7.50;;;;;;;-2.56;82.79;98253.55;82107;1293;3012647;-73
2023/12/25 06:38:52;;;;;;;11.40;6.50;;;;;;;-2.70;83.08;98252.20;82051;1293;3011465;-73
2023/12/25 06:41:20;;;;;;;16.30;6.80;;;;;;;-2.57;82.53;98246.55;80825;1297;3026689;-73
2023/12/25 06:43:47;;;;;;;13.40;6.40;;;;;;;-2.54;82.17;98244.77;82176;1292;3018723;-75
2023/12/25 06:46:14;;;;;;;10.20;6.00;;;;;;;-2.51;82.54;98240.55;82113;1294;3011377;-73
2023/12/25 06:48:43;;;;;;;12.50;5.70;;;;;;;-2.57;82.54;98238.16;80847;1292;3026155;-74
2023/12/25 06:51:10;;;;;;;13.00;5.60;;;;;;;-2.65;83.74;98245.41;82009;1293;3011521;-73
2023/12/25 06:53:36;;;;;;;25.30;9.20;;;;;;;-2.11;82.93;98240.81;82040;1293;3011224;-73
2023/12/25 06:56:06;;;;;;;26.90;11.10;;;;;;;-1.64;81.51;98241.83;80807;1297;3051874;-73
2023/12/25 06:58:33;;;;;;;20.80;10.40;;;;;;;-1.45;80.35;98242.65;82083;1295;3012613;-72
2023/12/25 07:01:02;;;;;;;14.30;7.10;;;;;;;-1.67;81.04;98242.11;82048;1292;3011307;-74
2023/12/25 07:03:30;;;;;;;18.60;7.80;;;;;;;-2.08;82.73;98234.23;80838;1293;3056446;-73
2023/12/25 07:05:57;;;;;;;17.20;7.80;;;;;;;-2.03;83.64;98228.07;82064;1292;3012635;-68
2023/12/25 07:08:27;;;;;;;19.80;8.10;;;;;;;-2.16;84.25;98231.52;82121;1293;3011265;-73
2023/12/25 07:10:55;;;;;;;20.70;7.80;;;;;;;-2.50;86.13;98233.85;80869;1294;3051880;-72
2023/12/25 07:13:22;;;;;;;15.20;6.70;;;;;;;-2.61;87.31;98236.36;82160;1293;3013236;-72
2023/12/25 07:15:48;;;;;;;10.60;6.30;;;;;;;-2.69;88.53;98238.81;82052;1293;3011536;-71
2023/12/25 07:18:16;;;;;;;13.10;6.40;;;;;;;-2.68;89.65;98229.86;80872;1292;3026233;-70
2023/12/25 07:20:43;;;;;;;10.20;5.80;;;;;;;-2.06;88.88;98220.95;82163;1294;3012475;-70
2023/12/25 07:23:10;;;;;;;13.80;6.50;;;;;;;-1.68;87.59;98206.92;82158;1292;3011167;-73
2023/12/25 07:25:38;;;;;;;12.10;5.60;;;;;;;-1.57;86.79;98196.11;80862;1295;3026456;-71
2023/12/25 07:28:04;;;;;;;9.40;5.80;;;;;;;-1.58;86.85;98202.52;82190;1292;3012529;-70
2023/12/25 07:30:31;;;;;;;13.60;6.50;;;;;;;-1.78;87.71;98202.44;82181;1292;3011340;-71
2023/12/25 07:32:59;;;;;;;14.00;6.90;;;;;;;-1.85;88.48;98199.56;80862;1292;3026504;-65
2023/12/25 07:35:26;;;;;;;13.00;6.30;;;;;;;-1.94;89.07;98196.73;82088;1294;3012534;-72
2023/12/25 07:37:53;;;;;;;14.90;6.90;;;;;;;-1.81;89.05;98192.23;82129;1292;3011270;-73
2023/12/25 07:40:20;;;;;;;12.10;5.90;;;;;;;-2.06;89.49;98189.71;80906;1293;3025039;-72
2023/12/25 07:42:47;;;;;;;12.40;5.80;;;;;;;-1.68;89.95;98181.84;82124;1292;3018123;-73
2023/12/25 07:45:14;;;;;;;10.30;5.30;;;;;;;-1.30;88.71;98181.33;82089;1293;3011241;-74
2023/12/25 07:47:42;;;;;;;9.90;5.20;;;;;;;-1.11;87.08;98180.02;80790;1292;3026297;-73
2023/12/25 07:50:09;;;;;;;12.20;5.10;;;;;;;-1.22;86.96;98175.41;82111;1294;3012695;-75
2023/12/25 07:52:36;;;;;;;9.40;5.30;;;;;;;-1.48;88.10;98168.52;82067;1294;3011257;-72
2023/12/25 07:55:04;;;;;;;7.40;5.40;;;;;;;-1.50;88.60;98161.56;80821;1293;3024923;-74
2023/12/25 07:57:30;;;;;;;10.20;5.30;;;;;;;-1.57;88.92;98159.02;82142;1294;3012778;-74
2023/12/25 07:59:57;;;;;;;8.10;5.00;;;;;;;-1.61;89.36;98150.91;82100;1297;3011814;-72
2023/12/25 08:02:25;;;;;;;10.80;5.60;;;;;;;-1.63;89.60;98147.88;80859;1292;3025296;-74
2023/12/25 08:04:52;;;;;;;11.10;5.20;;;;;;;-1.71;90.32;98144.52;82169;1292;3013295;-72
2023/12/25 08:07:18;;;;;;;6.90;4.10;;;;;;;-1.45;89.99;98136.64;82094;1294;3011551;-72
2023/12/25 08:09:47;;;;;;;7.40;4.50;;;;;;;-0.89;88.94;98127.67;80884;1294;3026739;-74
2023/12/25 08:12:14;;;;;;;11.30;5.70;;;;;;;-0.69;87.67;98120.27;82198;1294;3013223;-72
2023/12/25 08:14:41;;;;;;;6.90;4.40;;;;;;;-0.76;87.24;98114.17;82152;1292;3011278;-72
2023/12/25 08:17:09;;;;;;;9.50;4.60;;;;;;;-0.94;87.80;98109.83;80886;1292;3055728;-75
2023/12/25 08:19:35;;;;;;;8.00;5.10;;;;;;;-1.03;88.46;98110.13;82122;1293;3012720;-76
2023/12/25 08:22:02;;;;;;;8.10;5.00;;;;;;;-1.22;89.94;98107.00;82084;1292;3011530;-75
2023/12/25 08:24:30;;;;;;;6.80;4.50;;;;;;;-1.31;90.82;98095.11;80843;1293;3026342;-72
2023/12/25 08:26:57;;;;;;;8.50;4.30;;;;;;;-1.03;91.00;98086.92;82080;1293;3013190;-72
2023/12/25 08:29:24;;;;;;;7.20;4.60;;;;;;;-0.61;89.38;98075.27;82130;1294;3011319;-79
2023/12/25 08:31:52;;;;;;;9.00;4.90;;;;;;;-0.56;88.51;98067.34;80861;1292;3027572;-74
2023/12/25 08:34:18;;;;;;;13.00;5.50;;;;;;;-0.82;89.32;98064.17;82106;1293;3019317;-70
2023/12/25 08:36:45;;;;;;;8.40;5.00;;;;;;;-0.86;89.37;98053.64;82126;1294;3011290;-69
2023/12/25 08:39:13;;;;;;;10.60;5.50;;;;;;;-1.03;89.64;98053.27;80875;1294;3025058;-72
2023/12/25 08:41:40;;;;;;;8.30;5.00;;;;;;;-1.28;90.97;98050.69;82127;1293;3012790;-75
2023/12/25 08:44:07;;;;;;;12.10;4.90;;;;;;;-1.19;91.11;98038.52;82091;1293;3011217;-74
2023/12/25 08:46:34;;;;;;;7.70;4.00;;;;;;;-1.38;91.46;98035.41;80880;1292;3055999;-72
2023/12/25 08:49:01;;;;;;;7.20;4.00;;;;;;;-0.98;91.64;98025.02;82216;1293;3018803;-72
2023/12/25 08:51:29;;;;;;;7.50;4.50;;;;;;;-0.62;89.60;98013.37;82146;1292;3011440;-73
2023/12/25 08:53:57;;;;;;;7.60;5.00;;;;;;;-0.70;89.74;98003.71;80875;1294;3052330;-72
2023/12/25 08:56:25;;;;;;;7.50;4.60;;;;;;;-1.11;91.05;98003.67;82181;1293;3012911;-68
2023/12/25 08:58:51;;;;;;;9.00;5.00;;;;;;;-0.89;91.85;97984.83;82151;1292;3011360;-70
2023/12/25 09:01:22;;;;;;;8.50;5.10;;;;;;;-0.99;91.65;97992.92;80857;1293;3055046;-73
2023/12/25 09:03:48;;;;;;;7.40;4.40;;;;;;;-1.37;92.46;97991.77;82091;1293;3012984;-74
2023/12/25 09:06:15;;;;;;;8.30;4.30;;;;;;;-1.01;92.99;97982.70;82129;1293;3011320;-72
2023/12/25 09:08:43;;;;;;;7.70;4.50;;;;;;;-0.43;90.72;97967.42;80895;1294;3052340;-70
2023/12/25 09:11:10;;;;;;;6.00;3.90;;;;;;;-0.40;89.77;97964.55;82151;1295;3012429;-73
2023/12/25 09:13:36;;;;;;;9.70;4.60;;;;;;;-0.64;89.65;97964.64;82084;1293;3011367;-72
2023/12/25 09:16:04;;;;;;;6.30;4.40;;;;;;;-0.93;91.12;97958.66;80887;1293;3026885;-72
2023/12/25 09:18:31;;;;;;;6.80;3.90;;;;;;;-0.79;91.84;97949.71;82152;1294;3012403;-72
2023/12/25 09:20:58;;;;;;;7.10;4.20;;;;;;;-1.00;92.14;97948.27;82145;1292;3011474;-71
2023/12/25 09:23:26;;;;;;;5.20;3.50;;;;;;;-1.00;93.12;97939.36;80887;1294;3051848;-73
2023/12/25 09:25:52;;;;;;;4.70;2.80;;;;;;;-0.56;92.18;97939.55;82192;1294;3018256;-76
2023/12/25 09:28:19;;;;;;;9.00;4.00;;;;;;;-0.28;90.36;97939.45;82122;1294;3011411;-72
2023/12/25 09:30:47;;;;;;;6.70;3.40;;;;;;;-0.40;90.41;97933.21;80831;1294;3027546;-74
2023/12/25 09:33:14;;;;;;;5.30;3.30;;;;;;;-0.46;90.64;97921.40;82133;1292;3012772;-76
2023/12/25 09:35:40;;;;;;;7.40;4.00;;;;;;;-0.71;91.41;97922.60;82048;1294;3011391;-72
2023/12/25 09:38:08;;;;;;;6.40;3.60;;;;;;;-0.91;92.81;97912.55;80881;1294;3025644;-74
2023/12/25 09:40:35;;;;;;;5.60;3.60;;;;;;;-0.79;92.91;97902.09;82162;1293;3018795;-73
2023/12/25 09:43:01;;;;;;;6.50;3.30;;;;;;;-1.01;93.54;97894.34;82138;1292;3011336;-72
2023/12/25 09:45:32;;;;;;;6.40;3.40;;;;;;;-0.55;93.57;97890.32;80878;1293;3026501;-73
2023/12/25 09:47:59;;;;;;;5.10;3.50;;;;;;;0.06;91.60;97882.60;82153;1292;3011398;-73
2023/12/25 09:50:30;;;;;;;7.90;4.40;;;;;;;0.22;90.09;97871.39;81539;1292;3011911;-71
2023/12/25 09:52:56;;;;;;;5.60;3.50;;;;;;;-0.04;89.85;97859.43;82145;1294;3011101;-72
2023/12/25 09:55:25;;;;;;;8.80;5.10;;;;;;;-0.40;90.59;97853.36;82153;1293;3011352;-72
2023/12/25 09:57:52;;;;;;;7.70;4.60;;;;;;;-0.47;91.72;97843.90;80871;1296;3070282;-71
2023/12/25 10:00:20;;;;;;;21.30;6.50;;;;;;;-0.81;93.19;97839.25;82083;1294;3012984;-70
2023/12/25 10:02:48;;;;;;;29.20;8.10;;;;;;;-0.75;94.08;97829.73;82073;1294;3011091;-71
2023/12/25 10:05:18;;;;;;;13.30;4.70;;;;;;;-0.23;93.61;97817.23;80729;1295;3051842;-72
2023/12/25 10:07:46;;;;;;;11.60;5.60;;;;;;;0.17;91.44;97802.39;82092;1293;3012770;-68
2023/12/25 10:10:15;;;;;;;23.30;7.30;;;;;;;0.07;91.63;97794.77;81584;1297;3011265;-70
2023/12/25 10:12:43;;;;;;;12.70;5.60;;;;;;;-0.01;92.40;97794.41;82127;1294;3018047;-71
2023/12/25 10:15:14;;;;;;;7.10;4.40;;;;;;;-0.16;93.10;97796.45;82103;1294;3011125;-72
2023/12/25 10:17:42;;;;;;;9.70;3.80;;;;;;;-0.66;95.29;97789.48;80795;1292;3056494;-72
2023/12/25 10:20:08;;;;;;;4.70;3.50;;;;;;;-0.66;97.28;97791.16;82110;1294;3012805;-65
2023/12/25 10:22:38;;;;;;;4.60;3.40;;;;;;;-0.16;97.56;97779.25;82056;1294;3011184;-71
2023/12/25 10:25:13;;;;;;;6.60;4.00;;;;;;;-0.32;96.73;97765.47;80845;1294;3050780;-69
2023/12/25 10:27:42;;;;;;;8.30;3.90;;;;;;;-0.16;97.46;97753.08;80795;1295;3052713;-69
2023/12/25 10:30:17;;;;;;;9.60;3.80;;;;;;;-0.03;97.21;97745.99;82192;1295;3013236;-71
2023/12/25 10:32:46;;;;;;;7.30;3.90;;;;;;;-0.28;98.37;97736.95;80828;1293;3056802;-73
2023/12/25 10:35:19;;;;;;;6.40;3.50;;;;;;;-0.37;99.49;97739.04;82110;1292;3013418;-69
2023/12/25 10:37:47;;;;;;;;;;;;;;;-0.08;99.99;97725.35;80802;1294;3053083;-76
2023/12/25 10:40:27;;;;;;;5.70;3.30;;;;;;;0.02;99.96;97723.34;82119;1297;3018594;-74
2023/12/25 10:42:55;;;;;;;9.90;3.70;;;;;;;0.12;100.00;97723.23;80881;1294;3052995;-73
2023/12/25 10:45:23;;;;;;;6.20;3.90;;;;;;;0.19;100.00;97728.44;82137;1294;3012533;-72
2023/12/25 10:47:53;;;;;;;5.50;3.00;;;;;;;0.02;100.00;97720.94;82134;1293;3011527;-73
2023/12/25 10:50:25;;;;;;;5.20;3.10;;;;;;;0.53;100.00;97699.15;80894;1293;3048515;-73
2023/12/25 10:52:53;;;;;;;5.30;3.70;;;;;;;0.90;99.93;97696.45;82150;1292;3011291;-74
2023/12/25 10:55:26;;;;;;;7.20;4.20;;;;;;;0.85;99.31;97686.19;80855;1293;3049094;-72
2023/12/25 10:57:53;;;;;;;13.10;5.60;;;;;;;0.73;99.49;97688.33;82097;1294;3011152;-72
2023/12/25 11:00:21;;;;;;;11.00;5.40;;;;;;;0.69;99.19;97675.40;80860;1295;3051088;-72
2023/12/25 11:02:52;;;;;;;9.40;5.00;;;;;;;0.61;99.60;97674.58;82124;1295;3018087;-73
2023/12/25 11:05:20;;;;;;;11.80;5.40;;;;;;;0.86;99.39;97675.98;80719;1294;3056204;-72
2023/12/25 11:07:48;;;;;;;19.40;6.10;;;;;;;1.42;97.72;97666.60;82075;1294;3018312;-74
2023/12/25 11:10:15;;;;;;;20.20;7.50;;;;;;;1.32;96.06;97665.38;82013;1293;3011240;-74
2023/12/25 11:12:43;;;;;;;40.50;12.80;;;;;;;1.00;96.88;97650.83;80849;1297;3052342;-73
2023/12/25 11:15:11;;;;;;;24.40;7.70;;;;;;;0.92;97.87;97641.88;82159;1293;3018497;-75